KPSX

Palacios Municipal Airport

Palacios, Texas, USA
METAR KPSX 200055Z AUTO 18004KT 1 1/2SM BR OVC003 14/14 A3010 RMK AO2 T01390139
Observed Flight Rules
Jan-20 @ 00:55 UTC (26 minutes ago) Instrument Flight Rules
Wind Visibility Clouds Conditions
180° at 4 knots 1 1/2 miles
  • Overcast at 300' AGL
  • Mist
Temperatures Readings
Current 14°C / 57°F
Dewpoint 14°C / 57°F
Humidity 100%
Altimeter 30.1" Hg
Pressure 1019 hPa
Elevation 5
METAR KPSX 200055Z AUTO 18004KT 1 1/2SM BR OVC003 14/14 A3010 RMK AO2 T01390139
Observed Flight Rules
Jan-20 @ 00:55 UTC
(26 minutes ago)
LIFR
Wind Visibility
180° at 4 knots 1 1/2 miles
Clouds
  • Overcast at 300' AGL
Conditions
  • Mist
Temperature Dewpoint
14°C / 57°F 14°C / 57°F
Humidity Altimeter Pressure
100% 30.1" Hg 1019 hPa